createdAt,value
2022-12-20T00:01:47.716Z,71.25
2022-12-20T00:04:14.754Z,67.20
2022-12-20T00:06:41.797Z,66.53
2022-12-20T00:09:09.973Z,58.92
2022-12-20T00:11:39.676Z,58.92
2022-12-20T00:14:07.371Z,59.25
2022-12-20T00:16:34.690Z,62.10
2022-12-20T00:19:04.283Z,62.13
2022-12-20T00:21:32.861Z,60.55
2022-12-20T00:24:00.284Z,62.20
2022-12-20T00:26:31.680Z,55.38
2022-12-20T00:29:00.161Z,54.72
2022-12-20T00:31:30.359Z,66.82
2022-12-20T00:33:58.992Z,66.68
2022-12-20T00:36:28.022Z,59.17
2022-12-20T00:38:57.405Z,56.78
2022-12-20T00:41:27.086Z,59.10
2022-12-20T00:43:54.436Z,53.30
2022-12-20T00:46:23.547Z,54.42
2022-12-20T00:48:51.190Z,55.45
2022-12-20T00:51:24.037Z,54.35
2022-12-20T00:53:51.410Z,56.85
2022-12-20T00:56:19.436Z,52.35
2022-12-20T00:58:46.868Z,53.58
2022-12-20T01:01:23.515Z,60.97
2022-12-20T01:03:52.154Z,55.67
2022-12-20T01:06:19.495Z,53.10
2022-12-20T01:08:46.881Z,57.13
2022-12-20T01:11:16.893Z,66.97
2022-12-20T01:13:47.505Z,57.80
2022-12-20T01:16:20.863Z,62.15
2022-12-20T01:21:16.956Z,58.45
2022-12-20T01:23:44.566Z,51.65
2022-12-20T01:26:14.428Z,57.17
2022-12-20T01:28:43.348Z,58.95
2022-12-20T01:31:12.478Z,57.70
2022-12-20T01:33:39.777Z,55.35
2022-12-20T01:36:09.343Z,52.15
2022-12-20T01:38:36.413Z,59.55
2022-12-20T01:41:04.391Z,62.67
2022-12-20T01:43:56.676Z,59.70
2022-12-20T01:46:27.105Z,58.90
2022-12-20T01:49:07.279Z,58.97
2022-12-20T01:51:39.716Z,59.40
2022-12-20T01:54:15.712Z,42.33
2022-12-20T01:56:45.105Z,58.15
2022-12-20T01:59:13.700Z,59.10
2022-12-20T02:01:45.394Z,63.45
2022-12-20T02:04:12.590Z,64.53
2022-12-20T02:06:39.606Z,60.22
2022-12-20T02:09:08.826Z,62.55
2022-12-20T02:11:55.744Z,65.15
2022-12-20T02:14:40.842Z,67.07
2022-12-20T02:17:26.230Z,62.72
2022-12-20T02:20:26.980Z,63.75
2022-12-20T02:23:21.384Z,62.58
2022-12-20T02:26:00.410Z,65.00
2022-12-20T02:28:33.442Z,59.17
2022-12-20T02:31:05.367Z,59.38
2022-12-20T02:33:32.323Z,59.38
2022-12-20T02:35:59.497Z,50.65
2022-12-20T02:38:35.622Z,55.67
2022-12-20T02:41:11.633Z,58.45
2022-12-20T02:44:00.134Z,58.85
2022-12-20T02:46:28.170Z,63.97
2022-12-20T02:48:58.217Z,58.75
2022-12-20T02:51:28.231Z,55.83
2022-12-20T02:53:55.795Z,51.42
2022-12-20T02:56:50.864Z,66.00
2022-12-20T02:59:19.610Z,56.95
2022-12-20T03:01:50.993Z,55.47
2022-12-20T03:04:20.560Z,63.35
2022-12-20T03:07:16.874Z,58.50
2022-12-20T03:09:45.103Z,57.45
2022-12-20T03:12:13.504Z,53.90
2022-12-20T03:14:40.885Z,57.95
2022-12-20T03:17:09.657Z,54.20
2022-12-20T03:19:36.722Z,53.25
2022-12-20T03:22:03.967Z,53.03
2022-12-20T03:24:32.727Z,57.47
2022-12-20T03:26:59.876Z,57.75
2022-12-20T03:29:27.284Z,53.63
2022-12-20T03:31:54.302Z,57.88
2022-12-20T03:34:21.456Z,49.88
2022-12-20T03:36:48.557Z,51.03
2022-12-20T03:39:15.570Z,59.55
2022-12-20T03:41:42.554Z,54.50
2022-12-20T03:44:10.628Z,51.65
2022-12-20T03:46:37.781Z,52.13
2022-12-20T03:49:04.779Z,56.10
2022-12-20T03:51:32.092Z,55.08
2022-12-20T03:53:59.152Z,54.00
2022-12-20T03:56:26.094Z,55.92
2022-12-20T03:58:53.087Z,48.67
2022-12-20T04:01:27.083Z,54.70
2022-12-20T04:03:54.686Z,55.85
2022-12-20T04:06:22.932Z,57.60
2022-12-20T04:08:50.531Z,53.45
2022-12-20T04:11:17.672Z,60.10
2022-12-20T04:13:45.259Z,53.58
2022-12-20T04:16:15.121Z,55.83
2022-12-20T04:18:42.476Z,49.53
2022-12-20T04:21:10.432Z,55.05
2022-12-20T04:23:39.693Z,51.42
2022-12-20T04:26:07.883Z,42.88
2022-12-20T04:28:36.103Z,47.88
2022-12-20T04:31:04.097Z,41.08
2022-12-20T04:33:31.880Z,43.83
2022-12-20T04:35:58.939Z,42.78
2022-12-20T04:38:26.159Z,42.50
2022-12-20T04:40:55.028Z,43.08
2022-12-20T04:43:23.207Z,40.65
2022-12-20T04:45:53.011Z,44.35
2022-12-20T04:48:55.337Z,44.15
2022-12-20T04:51:07.802Z,50.00
2022-12-20T04:53:50.054Z,42.70
2022-12-20T04:56:23.446Z,43.45
2022-12-20T05:01:19.638Z,42.00
2022-12-20T05:03:47.749Z,43.33
2022-12-20T05:06:14.969Z,43.28
2022-12-20T05:08:41.929Z,40.92
2022-12-20T05:11:09.596Z,38.80
2022-12-20T05:13:36.578Z,43.63
2022-12-20T05:16:04.283Z,45.80
2022-12-20T05:18:31.905Z,42.90
2022-12-20T05:21:18.558Z,40.30
2022-12-20T05:24:04.141Z,51.20
2022-12-20T05:26:33.463Z,49.30
2022-12-20T05:29:00.949Z,49.08
2022-12-20T05:31:28.043Z,49.00
2022-12-20T05:33:55.498Z,50.90
2022-12-20T05:36:22.531Z,50.58
2022-12-20T05:38:50.125Z,46.95
2022-12-20T05:41:17.174Z,47.80
2022-12-20T05:43:44.187Z,56.05
2022-12-20T05:46:11.606Z,50.53
2022-12-20T05:48:38.736Z,51.88
2022-12-20T05:51:05.998Z,58.55
2022-12-20T05:53:33.013Z,56.70
2022-12-20T05:56:01.472Z,57.40
2022-12-20T05:58:29.029Z,65.43
2022-12-20T06:00:56.485Z,48.70
2022-12-20T06:03:23.691Z,57.97
2022-12-20T06:05:50.777Z,50.65
2022-12-20T06:08:17.933Z,55.90
2022-12-20T06:10:44.894Z,53.08
2022-12-20T06:13:12.046Z,50.80
2022-12-20T06:15:39.767Z,49.95
2022-12-20T06:18:07.294Z,56.20
2022-12-20T06:20:35.675Z,48.40
2022-12-20T06:23:03.683Z,48.05
2022-12-20T06:25:31.348Z,50.20
2022-12-20T06:27:58.663Z,50.63
2022-12-20T06:30:31.819Z,44.45
2022-12-20T06:33:00.571Z,48.95
2022-12-20T06:35:27.546Z,47.80
2022-12-20T06:37:54.706Z,54.63
2022-12-20T06:40:22.357Z,51.53
2022-12-20T06:42:50.682Z,50.42
2022-12-20T06:45:18.108Z,58.83
2022-12-20T06:47:45.266Z,50.50
2022-12-20T06:50:12.211Z,62.20
2022-12-20T06:52:39.157Z,65.18
2022-12-20T06:55:06.492Z,62.55
2022-12-20T06:57:33.600Z,60.13
2022-12-20T07:00:00.629Z,57.53
2022-12-20T07:02:28.353Z,56.60
2022-12-20T07:04:55.642Z,69.35
2022-12-20T07:07:22.977Z,49.83
2022-12-20T07:09:49.907Z,57.05
2022-12-20T07:12:16.986Z,53.45
2022-12-20T07:14:44.686Z,55.88
2022-12-20T07:17:11.793Z,52.13
2022-12-20T07:19:38.988Z,51.10
2022-12-20T07:22:06.185Z,56.28
2022-12-20T07:24:34.053Z,52.55
2022-12-20T07:27:02.044Z,53.20
2022-12-20T07:29:29.642Z,63.20
2022-12-20T07:31:56.844Z,54.85
2022-12-20T07:34:23.942Z,56.38
2022-12-20T07:36:53.063Z,52.05
2022-12-20T07:39:20.123Z,57.65
2022-12-20T07:41:47.140Z,55.20
2022-12-20T07:44:14.517Z,67.35
2022-12-20T07:46:41.582Z,56.95
2022-12-20T07:49:09.905Z,58.15
2022-12-20T07:51:48.424Z,59.38
2022-12-20T07:54:28.551Z,57.95
2022-12-20T07:56:59.668Z,57.30
2022-12-20T07:59:34.390Z,57.08
2022-12-20T08:02:04.999Z,63.00
2022-12-20T08:04:33.989Z,52.38
2022-12-20T08:07:01.994Z,53.17
2022-12-20T08:09:31.620Z,53.33
2022-12-20T08:11:58.709Z,52.13
2022-12-20T08:14:25.775Z,51.90
2022-12-20T08:16:53.055Z,52.42
2022-12-20T08:19:20.207Z,55.17
2022-12-20T08:21:47.217Z,53.47
2022-12-20T08:24:14.280Z,59.42
2022-12-20T08:26:41.979Z,59.38
2022-12-20T08:29:09.606Z,63.72
2022-12-20T08:31:44.450Z,62.28
2022-12-20T08:36:59.313Z,70.93
2022-12-20T08:39:26.229Z,74.88
2022-12-20T08:41:53.285Z,65.40
2022-12-20T08:44:20.386Z,65.75
2022-12-20T08:46:47.387Z,69.05
2022-12-20T08:49:14.358Z,69.57
2022-12-20T08:51:41.506Z,71.57
2022-12-20T08:54:08.596Z,64.07
2022-12-20T08:56:35.649Z,68.85
2022-12-20T08:59:02.805Z,75.68
2022-12-20T09:01:33.781Z,72.95
2022-12-20T09:04:01.153Z,71.30
2022-12-20T09:06:28.179Z,72.65
2022-12-20T09:08:55.814Z,70.97
2022-12-20T09:11:25.341Z,70.82
2022-12-20T09:13:55.092Z,71.32
2022-12-20T09:16:26.823Z,80.00
2022-12-20T09:19:02.697Z,81.55
2022-12-20T09:21:32.986Z,70.95
2022-12-20T09:24:00.326Z,81.75
2022-12-20T09:26:27.543Z,78.20
2022-12-20T09:28:54.656Z,78.13
2022-12-20T09:31:24.330Z,80.70
2022-12-20T09:34:01.147Z,77.20
2022-12-20T09:36:29.750Z,76.82
2022-12-20T09:38:57.581Z,74.05
2022-12-20T09:41:37.404Z,74.72
2022-12-20T09:44:19.616Z,73.82
2022-12-20T09:46:55.828Z,77.05
2022-12-20T09:49:27.806Z,72.53
2022-12-20T09:52:15.829Z,79.72
2022-12-20T09:55:10.131Z,70.70
2022-12-20T09:57:49.275Z,78.15
2022-12-20T10:00:18.851Z,80.13
2022-12-20T10:03:09.376Z,83.43
2022-12-20T10:06:07.055Z,69.10
2022-12-20T10:08:42.963Z,74.07
2022-12-20T10:11:43.446Z,71.60
2022-12-20T10:14:27.265Z,73.18
2022-12-20T10:17:10.942Z,83.43
2022-12-20T10:19:53.048Z,83.10
2022-12-20T10:22:36.149Z,76.13
2022-12-20T10:25:23.225Z,62.08
2022-12-20T10:27:53.444Z,74.47
2022-12-20T10:30:22.929Z,69.68
2022-12-20T10:32:52.968Z,78.88
2022-12-20T10:35:25.437Z,73.45
2022-12-20T10:38:08.412Z,62.17
2022-12-20T10:41:21.338Z,70.18
2022-12-20T10:44:06.080Z,69.22
2022-12-20T10:46:46.424Z,61.72
2022-12-20T10:49:37.028Z,58.55
2022-12-20T10:52:13.399Z,73.10
2022-12-20T10:54:43.486Z,70.03
2022-12-20T10:57:22.186Z,56.95
2022-12-20T11:00:00.516Z,58.03
2022-12-20T11:02:33.215Z,61.72
2022-12-20T11:05:24.505Z,58.53
2022-12-20T11:10:46.116Z,57.92
2022-12-20T11:13:26.767Z,63.65
2022-12-20T11:15:57.632Z,61.97
2022-12-20T11:18:27.967Z,61.60
2022-12-20T11:21:14.611Z,56.03
2022-12-20T11:24:23.954Z,60.00
2022-12-20T11:26:50.930Z,57.05
2022-12-20T11:29:56.833Z,63.17
2022-12-20T11:33:16.106Z,53.78
2022-12-20T11:36:13.317Z,60.15
2022-12-20T11:38:59.107Z,62.83
2022-12-20T11:41:36.442Z,61.47
2022-12-20T11:44:27.773Z,60.38
2022-12-20T11:47:33.094Z,58.70
2022-12-20T11:50:18.444Z,60.95
2022-12-20T11:52:54.731Z,63.83
2022-12-20T11:55:27.570Z,63.55
2022-12-20T11:58:19.679Z,64.70
2022-12-20T12:01:00.620Z,63.90
2022-12-20T12:03:34.747Z,69.10
2022-12-20T12:06:34.930Z,77.53
2022-12-20T12:09:32.603Z,66.13
2022-12-20T12:12:10.777Z,85.20
2022-12-20T12:15:04.184Z,94.50
2022-12-20T12:17:50.928Z,95.07
2022-12-20T12:20:24.141Z,77.95
2022-12-20T12:25:21.750Z,92.90
2022-12-20T12:27:48.897Z,82.22
2022-12-20T12:30:17.045Z,85.28
2022-12-20T12:32:47.091Z,95.78
2022-12-20T12:35:41.387Z,93.47
2022-12-20T12:38:35.560Z,91.97
2022-12-20T12:41:11.477Z,92.22
2022-12-20T12:44:21.094Z,93.05
2022-12-20T12:46:56.270Z,94.43
2022-12-20T12:49:28.183Z,95.90
2022-12-20T12:52:01.124Z,93.25
2022-12-20T12:54:32.689Z,93.53
2022-12-20T12:57:10.943Z,95.20
2022-12-20T12:59:38.626Z,90.45
2022-12-20T13:02:15.039Z,91.97
2022-12-20T13:05:06.417Z,86.35
2022-12-20T13:07:33.356Z,103.30
2022-12-20T13:10:10.254Z,90.90
2022-12-20T13:12:37.398Z,95.60
2022-12-20T13:15:19.834Z,94.85
2022-12-20T13:17:49.971Z,89.95
2022-12-20T13:20:28.623Z,87.45
2022-12-20T13:23:11.849Z,85.72
2022-12-20T13:25:46.530Z,79.90
2022-12-20T13:28:19.256Z,90.55
2022-12-20T13:30:48.040Z,79.57
2022-12-20T13:33:43.737Z,86.75
2022-12-20T13:36:10.863Z,91.68
2022-12-20T13:38:44.931Z,92.82
2022-12-20T13:41:59.830Z,96.70
2022-12-20T13:44:50.425Z,95.43
2022-12-20T13:47:37.901Z,96.07
2022-12-20T13:50:37.149Z,102.53
2022-12-20T13:53:05.210Z,94.25
2022-12-20T13:55:39.098Z,96.00
2022-12-20T13:58:20.194Z,88.00
2022-12-20T14:00:48.480Z,88.35
2022-12-20T14:03:27.814Z,90.10
2022-12-20T14:05:59.388Z,94.35
2022-12-20T14:08:30.769Z,95.70
2022-12-20T14:11:12.053Z,98.80
2022-12-20T14:13:40.427Z,105.50
2022-12-20T14:16:16.640Z,92.72
2022-12-20T14:19:07.841Z,92.88
2022-12-20T14:21:39.756Z,106.15
2022-12-20T14:24:11.233Z,102.40
2022-12-20T14:26:44.803Z,101.60
2022-12-20T14:29:16.075Z,106.22
2022-12-20T14:31:51.277Z,103.03
2022-12-20T14:34:29.860Z,104.55
2022-12-20T14:37:37.501Z,109.97
2022-12-20T14:40:19.599Z,95.00
2022-12-20T14:42:47.309Z,101.85
2022-12-20T14:45:14.459Z,86.50
2022-12-20T14:47:57.881Z,91.63
2022-12-20T14:50:38.812Z,102.20
2022-12-20T14:53:18.741Z,96.97
2022-12-20T14:55:46.827Z,96.72
2022-12-20T14:58:28.191Z,92.78
2022-12-20T15:01:18.591Z,101.20
2022-12-20T15:03:58.035Z,100.88
2022-12-20T15:06:42.886Z,94.20
2022-12-20T15:09:10.137Z,93.07
2022-12-20T15:11:38.404Z,95.95
2022-12-20T15:14:19.919Z,100.03
2022-12-20T15:16:53.707Z,97.95
2022-12-20T15:19:20.788Z,102.38
2022-12-20T15:21:48.128Z,97.95
2022-12-20T15:24:19.937Z,111.15
2022-12-20T15:26:47.330Z,102.85
2022-12-20T15:29:25.897Z,108.28
2022-12-20T15:32:04.148Z,101.47
2022-12-20T15:34:35.254Z,101.13
2022-12-20T15:37:02.687Z,109.07
2022-12-20T15:39:30.000Z,113.18
2022-12-20T15:41:58.544Z,114.47
2022-12-20T15:44:27.831Z,114.43
2022-12-20T15:46:54.916Z,112.15
2022-12-20T15:49:31.585Z,118.25
2022-12-20T15:51:58.855Z,114.80
2022-12-20T15:54:34.851Z,130.40
2022-12-20T15:57:04.847Z,126.45
2022-12-20T15:59:58.964Z,129.02
2022-12-20T16:02:19.322Z,127.57
2022-12-20T16:04:46.398Z,119.72
2022-12-20T16:07:13.814Z,130.23
2022-12-20T16:09:41.265Z,135.48
2022-12-20T16:12:31.872Z,141.55
2022-12-20T16:15:22.440Z,145.30
2022-12-20T16:17:49.598Z,140.13
2022-12-20T16:20:16.793Z,131.77
2022-12-20T16:22:43.827Z,134.75
2022-12-20T16:25:32.675Z,125.43
2022-12-20T16:27:59.809Z,131.38
2022-12-20T16:30:27.221Z,125.43
2022-12-20T16:32:54.639Z,149.10
2022-12-20T16:35:33.310Z,143.85
2022-12-20T16:38:00.928Z,151.73
2022-12-20T16:40:30.494Z,138.75
2022-12-20T16:42:59.421Z,135.68
2022-12-20T16:45:29.749Z,133.40
2022-12-20T16:47:57.096Z,136.90
2022-12-20T16:50:26.313Z,133.50
2022-12-20T16:52:53.926Z,130.00
2022-12-20T16:55:26.985Z,131.23
2022-12-20T16:57:54.659Z,135.95
2022-12-20T17:00:25.338Z,127.88
2022-12-20T17:02:53.033Z,134.38
2022-12-20T17:05:23.139Z,124.65
2022-12-20T17:07:50.302Z,128.45
2022-12-20T17:10:18.057Z,121.50
2022-12-20T17:12:45.463Z,134.43
2022-12-20T17:15:25.344Z,123.47
2022-12-20T17:17:53.050Z,122.38
2022-12-20T17:20:21.880Z,132.68
2022-12-20T17:22:50.685Z,129.23
2022-12-20T17:25:35.253Z,135.43
2022-12-20T17:28:02.233Z,135.07
2022-12-20T17:30:29.223Z,123.95
2022-12-20T17:32:56.314Z,147.35
2022-12-20T17:35:33.088Z,137.38
2022-12-20T17:38:02.114Z,139.68
2022-12-20T17:40:29.433Z,142.57
2022-12-20T17:42:56.526Z,128.30
2022-12-20T17:45:32.766Z,122.88
2022-12-20T17:47:59.874Z,141.93
2022-12-20T17:50:27.800Z,149.27
2022-12-20T17:52:55.613Z,151.93
2022-12-20T17:55:28.070Z,148.25
2022-12-20T17:57:55.959Z,149.60
2022-12-20T18:00:34.580Z,154.18
2022-12-20T18:03:05.548Z,134.48
2022-12-20T18:05:32.676Z,131.77
2022-12-20T18:07:59.653Z,150.68
2022-12-20T18:10:26.692Z,145.05
2022-12-20T18:12:53.759Z,148.75
2022-12-20T18:15:20.782Z,145.25
2022-12-20T18:17:47.723Z,147.43
2022-12-20T18:20:15.152Z,129.68
2022-12-20T18:22:42.329Z,137.40
2022-12-20T18:25:09.821Z,148.27
2022-12-20T18:27:41.954Z,171.25
2022-12-20T18:30:10.485Z,147.73
2022-12-20T18:32:37.551Z,138.15
2022-12-20T18:35:04.905Z,140.02
2022-12-20T18:37:31.904Z,132.80
2022-12-20T18:39:58.889Z,189.10
2022-12-20T18:42:25.944Z,157.30
2022-12-20T18:44:52.908Z,171.25
2022-12-20T18:47:20.205Z,170.40
2022-12-20T18:49:47.279Z,163.63
2022-12-20T18:52:14.361Z,169.55
2022-12-20T18:54:42.086Z,173.32
2022-12-20T18:57:09.294Z,168.57
2022-12-20T18:59:36.555Z,168.77
2022-12-20T19:02:04.379Z,165.07
2022-12-20T19:04:31.659Z,168.05
2022-12-20T19:06:58.776Z,165.75
2022-12-20T19:09:25.973Z,170.98
2022-12-20T19:11:57.135Z,166.15
2022-12-20T19:14:24.973Z,163.52
2022-12-20T19:16:52.528Z,164.63
2022-12-20T19:19:20.659Z,172.07
2022-12-20T19:21:47.852Z,170.80
2022-12-20T19:24:14.914Z,188.93
2022-12-20T19:26:42.340Z,181.82
2022-12-20T19:29:09.540Z,187.25
2022-12-20T19:31:38.031Z,164.57
2022-12-20T19:34:11.978Z,157.05
2022-12-20T19:36:42.113Z,162.80
2022-12-20T19:39:15.183Z,176.85
2022-12-20T19:41:42.277Z,170.13
2022-12-20T19:44:10.725Z,174.73
2022-12-20T19:46:37.920Z,170.45
2022-12-20T19:49:05.028Z,167.32
2022-12-20T19:51:32.141Z,164.95
2022-12-20T19:53:59.615Z,181.60
2022-12-20T19:56:31.899Z,182.73
2022-12-20T19:58:59.740Z,177.88
2022-12-20T20:01:27.870Z,182.25
2022-12-20T20:03:57.432Z,178.45
2022-12-20T20:06:25.666Z,178.02
2022-12-20T20:08:53.125Z,172.25
2022-12-20T20:11:21.279Z,175.95
2022-12-20T20:13:48.646Z,180.77
2022-12-20T20:16:21.786Z,183.00
2022-12-20T20:18:49.898Z,178.98
2022-12-20T20:21:21.641Z,184.88
2022-12-20T20:23:50.873Z,178.10
2022-12-20T20:26:21.455Z,172.65
2022-12-20T20:28:48.565Z,179.77
2022-12-20T20:31:17.967Z,160.27
2022-12-20T20:33:45.945Z,200.90
2022-12-20T20:36:16.001Z,202.20
2022-12-20T20:38:43.756Z,192.25
2022-12-20T20:41:11.396Z,192.50
2022-12-20T20:43:39.594Z,199.80
2022-12-20T20:46:09.583Z,224.35
2022-12-20T20:48:37.693Z,194.85
2022-12-20T20:51:05.770Z,206.80
2022-12-20T20:53:34.445Z,178.88
2022-12-20T20:56:03.003Z,190.20
2022-12-20T20:58:30.058Z,215.00
2022-12-20T21:00:59.219Z,215.40
2022-12-20T21:03:27.617Z,193.75
2022-12-20T21:08:42.509Z,187.85
2022-12-20T21:11:10.150Z,178.45
2022-12-20T21:13:37.513Z,177.50
2022-12-20T21:16:13.258Z,199.98
2022-12-20T21:18:41.340Z,190.30
2022-12-20T21:21:10.813Z,199.93
2022-12-20T21:23:39.188Z,217.27
2022-12-20T21:26:07.775Z,228.48
2022-12-20T21:28:35.948Z,245.90
2022-12-20T21:31:05.201Z,211.55
2022-12-20T21:33:32.886Z,190.30
2022-12-20T21:36:13.943Z,189.23
2022-12-20T21:38:41.287Z,215.82
2022-12-20T21:41:12.583Z,257.50
2022-12-20T21:43:39.865Z,195.45
2022-12-20T21:46:11.634Z,183.50
2022-12-20T21:48:39.667Z,163.52
2022-12-20T21:51:11.005Z,152.63
2022-12-20T21:53:46.278Z,168.10
2022-12-20T21:56:13.874Z,160.38
2022-12-20T21:58:40.979Z,210.20
2022-12-20T22:01:08.996Z,186.27
2022-12-20T22:03:37.149Z,205.73
2022-12-20T22:06:04.677Z,179.48
2022-12-20T22:08:33.121Z,186.77
2022-12-20T22:11:06.122Z,177.80
2022-12-20T22:13:40.860Z,164.52
2022-12-20T22:16:15.541Z,181.48
2022-12-20T22:18:43.918Z,181.23
2022-12-20T22:21:13.358Z,210.95
2022-12-20T22:23:43.552Z,158.95
2022-12-20T22:26:13.521Z,162.18
2022-12-20T22:28:49.221Z,169.75
2022-12-20T22:31:17.027Z,159.02
2022-12-20T22:33:44.799Z,153.07
2022-12-20T22:36:15.047Z,154.02
2022-12-20T22:38:43.579Z,142.90
2022-12-20T22:41:11.933Z,146.15
2022-12-20T22:43:41.239Z,149.32
2022-12-20T22:46:10.659Z,148.82
2022-12-20T22:48:38.855Z,157.93
2022-12-20T22:51:11.543Z,147.63
2022-12-20T22:53:39.059Z,121.72
2022-12-20T22:56:06.837Z,122.85
2022-12-20T22:58:34.905Z,121.88
2022-12-20T23:01:04.523Z,125.78
2022-12-20T23:03:32.330Z,165.18
2022-12-20T23:06:01.779Z,155.50
2022-12-20T23:08:31.299Z,145.13
2022-12-20T23:11:17.109Z,122.93
2022-12-20T23:14:02.704Z,125.63
2022-12-20T23:16:30.483Z,128.35
2022-12-20T23:19:02.456Z,142.32
2022-12-20T23:21:48.230Z,125.47
2022-12-20T23:24:15.988Z,133.82
2022-12-20T23:26:44.249Z,131.48
2022-12-20T23:29:14.177Z,130.80
2022-12-20T23:31:41.438Z,126.07
2022-12-20T23:34:08.503Z,130.57
2022-12-20T23:36:35.625Z,114.60
2022-12-20T23:39:03.475Z,144.43
2022-12-20T23:41:30.555Z,117.68
2022-12-20T23:43:57.895Z,140.70
2022-12-20T23:46:25.342Z,117.47
2022-12-20T23:48:52.844Z,128.30
2022-12-20T23:51:20.800Z,120.80
2022-12-20T23:53:48.169Z,124.15
2022-12-20T23:56:18.476Z,115.93
2022-12-20T23:58:49.945Z,126.15
